Time;durP1;ratioP1;P1;durP2;ratioP2;P2;SDS_P1;SDS_P2;PMS_P1;PMS_P2;Temp;Humidity;BMP_temperature;BMP_pressure;BME280_temperature;BME280_humidity;BME280_pressure;Samples;Min_cycle;Max_cycle;Signal;HPM_P1;HPM_P2
2022/03/21 00:01:20;;;;;;;23.25;14.48;;;5.40;55.80;;;;;;4991161;28;20053;-65
2022/03/21 00:03:46;;;;;;;26.63;15.57;;;5.50;55.90;;;;;;4996795;28;20030;-63
2022/03/21 00:06:12;;;;;;;28.13;16.23;;;5.50;56.00;;;;;;4998713;28;20393;-65
2022/03/21 00:08:38;;;;;;;27.70;16.27;;;5.60;56.00;;;;;;4994387;28;20576;-65
2022/03/21 00:11:05;;;;;;;30.05;17.77;;;5.60;55.90;;;;;;5000876;28;20578;-65
2022/03/21 00:13:31;;;;;;;28.63;16.90;;;5.60;56.00;;;;;;4997240;28;20034;-65
2022/03/21 00:15:57;;;;;;;25.60;16.02;;;5.60;55.90;;;;;;5005707;28;20091;-65
2022/03/21 00:18:24;;;;;;;28.42;16.75;;;5.60;55.90;;;;;;5000771;28;20033;-65
2022/03/21 00:20:55;;;;;;;23.85;14.77;;;5.50;55.90;;;;;;5018445;28;20033;-65
2022/03/21 00:23:23;;;;;;;27.02;16.10;;;5.50;56.00;;;;;;5023066;28;20421;-64
2022/03/21 00:25:49;;;;;;;26.42;15.63;;;5.50;55.90;;;;;;5022790;28;20167;-64
2022/03/21 00:28:15;;;;;;;26.83;16.10;;;5.50;56.00;;;;;;5015729;28;20232;-65
2022/03/21 00:30:42;;;;;;;28.05;16.02;;;5.50;56.20;;;;;;5021542;28;20508;-66
2022/03/21 00:33:09;;;;;;;25.70;15.77;;;5.50;56.20;;;;;;5027406;28;20029;-65
2022/03/21 00:35:35;;;;;;;28.33;16.25;;;5.40;56.10;;;;;;5023847;28;20457;-65
2022/03/21 00:38:01;;;;;;;27.10;15.82;;;5.40;56.20;;;;;;5018867;28;20554;-65
2022/03/21 00:40:29;;;;;;;28.80;16.20;;;5.30;56.20;;;;;;5013131;28;20037;-65
2022/03/21 00:42:55;;;;;;;26.50;15.52;;;5.20;56.30;;;;;;5014735;28;20400;-65
2022/03/21 00:45:24;;;;;;;24.77;15.13;;;5.10;56.40;;;;;;5017314;28;20113;-64
2022/03/21 00:47:51;;;;;;;24.60;14.43;;;5.10;56.50;;;;;;5023989;28;20052;-65
2022/03/21 00:50:19;;;;;;;24.52;14.77;;;5.00;56.50;;;;;;5025646;28;20045;-65
2022/03/21 00:52:53;;;;;;;22.52;13.65;;;4.90;56.60;;;;;;5020040;28;20064;-65
2022/03/21 00:55:20;;;;;;;25.85;14.48;;;4.80;56.90;;;;;;5020932;28;20025;-65
2022/03/21 00:57:46;;;;;;;23.35;14.25;;;4.80;56.90;;;;;;5022620;28;20047;-65
2022/03/21 01:00:16;;;;;;;25.77;14.68;;;4.60;56.90;;;;;;5022930;28;20532;-64
2022/03/21 01:02:42;;;;;;;25.50;14.77;;;4.60;57.20;;;;;;5018096;28;20041;-65
2022/03/21 01:05:08;;;;;;;25.45;15.02;;;4.50;57.20;;;;;;5018950;28;20049;-64
2022/03/21 01:07:35;;;;;;;24.48;14.10;;;4.50;57.40;;;;;;5019183;28;20360;-65
2022/03/21 01:10:02;;;;;;;23.30;14.77;;;4.50;57.50;;;;;;5022629;28;20115;-65
2022/03/21 01:12:28;;;;;;;23.13;13.93;;;4.40;57.50;;;;;;5015299;28;20033;-66
2022/03/21 01:14:54;;;;;;;25.70;15.25;;;4.40;57.50;;;;;;5013088;28;20154;-65
2022/03/21 01:17:20;;;;;;;25.85;14.85;;;4.40;57.60;;;;;;5020583;28;20267;-65
2022/03/21 01:19:45;;;;;;;26.30;15.10;;;4.30;57.70;;;;;;5023003;28;20052;-65
2022/03/21 01:22:11;;;;;;;25.40;15.20;;;4.20;57.80;;;;;;5024336;28;20038;-66
2022/03/21 01:24:38;;;;;;;25.90;15.15;;;4.20;57.90;;;;;;5021431;28;20163;-65
2022/03/21 01:27:04;;;;;;;26.60;14.68;;;4.10;58.00;;;;;;5022971;28;20029;-65
2022/03/21 01:29:31;;;;;;;27.13;16.00;;;4.00;58.10;;;;;;5021744;28;20416;-65
2022/03/21 01:31:56;;;;;;;26.50;15.18;;;4.00;58.20;;;;;;5016786;28;20037;-65
2022/03/21 01:34:22;;;;;;;24.13;14.40;;;3.90;58.30;;;;;;5024710;28;20037;-65
2022/03/21 01:36:48;;;;;;;28.92;15.73;;;3.90;58.40;;;;;;5024229;28;20041;-65
2022/03/21 01:39:14;;;;;;;26.65;15.25;;;3.80;58.40;;;;;;5024546;28;20299;-65
2022/03/21 01:41:39;;;;;;;26.17;14.68;;;3.80;58.40;;;;;;5016977;28;20033;-65
2022/03/21 01:44:07;;;;;;;24.42;14.93;;;3.80;58.50;;;;;;5021201;28;20075;-65
2022/03/21 01:46:33;;;;;;;24.27;14.48;;;3.70;58.50;;;;;;5017658;28;20041;-64
2022/03/21 01:49:00;;;;;;;24.73;14.88;;;3.70;58.70;;;;;;5017663;28;20045;-63
2022/03/21 01:51:26;;;;;;;25.75;14.40;;;3.60;58.80;;;;;;5018174;28;20053;-64
2022/03/21 01:56:39;;;;;;;27.17;14.15;;;3.50;59.00;;;;;;5020291;28;20124;-65
2022/03/21 01:59:07;;;;;;;27.65;14.52;;;3.50;59.00;;;;;;5018054;28;20619;-65
2022/03/21 02:01:33;;;;;;;26.45;14.35;;;3.50;59.10;;;;;;5011034;28;20164;-65
2022/03/21 02:03:59;;;;;;;24.05;14.18;;;3.50;59.30;;;;;;5019129;28;20033;-65
2022/03/21 02:06:28;;;;;;;22.73;13.68;;;3.40;59.50;;;;;;5024699;28;20080;-65
2022/03/21 02:08:58;;;;;;;22.55;13.65;;;3.30;59.50;;;;;;5023807;28;20051;-65
2022/03/21 02:11:28;;;;;;;25.10;14.40;;;3.30;59.60;;;;;;5012012;28;20034;-65
2022/03/21 02:13:54;;;;;;;25.73;13.88;;;3.30;59.80;;;;;;5013814;28;20034;-62
2022/03/21 02:16:21;;;;;;;22.83;13.57;;;3.20;59.70;;;;;;5015332;28;20021;-66
2022/03/21 02:18:48;;;;;;;24.73;14.07;;;3.20;59.70;;;;;;5015512;28;20060;-65
2022/03/21 02:21:24;;;;;;;22.77;13.32;;;3.20;59.70;;;;;;5022582;28;20333;-65
2022/03/21 02:24:07;;;;;;;26.30;15.05;;;3.20;61.20;;;;;;5025196;28;20041;-65
2022/03/21 02:26:35;;;;;;;26.00;14.32;;;3.10;60.50;;;;;;5020136;28;20113;-64
2022/03/21 02:29:02;;;;;;;24.83;14.10;;;3.10;59.90;;;;;;5018767;28;20034;-65
2022/03/21 02:31:32;;;;;;;23.98;13.80;;;3.00;59.90;;;;;;5007325;28;20125;-65
2022/03/21 02:33:58;;;;;;;24.85;13.82;;;3.00;60.10;;;;;;5017789;28;20509;-65
2022/03/21 02:36:26;;;;;;;24.63;13.85;;;3.00;60.20;;;;;;5019192;28;20080;-65
2022/03/21 02:38:54;;;;;;;23.65;13.65;;;3.00;60.40;;;;;;5015237;28;20029;-65
2022/03/21 02:41:20;;;;;;;23.30;13.13;;;2.90;60.40;;;;;;5030637;28;20040;-65
2022/03/21 02:43:53;;;;;;;24.27;13.45;;;2.90;60.40;;;;;;5015854;28;20030;-64
2022/03/21 02:46:19;;;;;;;24.13;14.52;;;2.90;60.80;;;;;;5014144;28;20045;-64
2022/03/21 02:48:46;;;;;;;25.65;14.38;;;2.90;60.50;;;;;;5015402;28;20041;-65
2022/03/21 02:51:13;;;;;;;23.98;13.73;;;2.80;60.70;;;;;;5022872;28;20136;-65
2022/03/21 02:53:40;;;;;;;24.70;14.15;;;2.80;60.90;;;;;;5020807;28;20033;-65
2022/03/21 02:56:06;;;;;;;23.85;13.85;;;2.80;61.10;;;;;;5011987;28;20524;-65
2022/03/21 02:58:31;;;;;;;24.60;14.05;;;2.80;61.10;;;;;;5018199;28;20382;-65
2022/03/21 03:01:17;;;;;;;25.85;13.75;;;2.70;61.10;;;;;;5015143;28;20505;-65
2022/03/21 03:03:44;;;;;;;23.00;13.73;;;2.70;62.10;;;;;;5010942;28;20038;-65
2022/03/21 03:06:10;;;;;;;20.73;12.85;;;2.70;61.30;;;;;;5018954;28;20053;-65
2022/03/21 03:08:38;;;;;;;26.20;13.75;;;2.70;61.30;;;;;;5019573;28;20704;-65
2022/03/21 03:11:03;;;;;;;25.27;14.25;;;2.70;61.40;;;;;;5006893;28;20535;-66
2022/03/21 03:13:29;;;;;;;22.55;13.52;;;2.70;61.40;;;;;;5021606;28;20044;-65
2022/03/21 03:15:55;;;;;;;28.63;14.50;;;2.70;61.50;;;;;;5021198;28;20026;-66
2022/03/21 03:18:20;;;;;;;23.65;13.30;;;2.70;61.60;;;;;;5021012;28;20095;-64
2022/03/21 03:20:53;;;;;;;25.45;14.20;;;2.70;61.70;;;;;;5018520;28;20044;-65
2022/03/21 03:23:20;;;;;;;24.45;14.18;;;2.70;61.90;;;;;;5019532;28;20114;-65
2022/03/21 03:25:47;;;;;;;24.05;13.82;;;2.70;61.80;;;;;;5018870;28;20602;-65
2022/03/21 03:28:13;;;;;;;26.63;14.80;;;2.60;61.80;;;;;;5022337;28;20125;-64
2022/03/21 03:30:40;;;;;;;24.73;13.55;;;2.60;61.80;;;;;;5019540;28;20455;-65
2022/03/21 03:33:07;;;;;;;25.63;14.63;;;2.60;61.80;;;;;;5009933;28;20512;-64
2022/03/21 03:35:33;;;;;;;26.30;14.27;;;2.50;61.60;;;;;;5018041;28;20022;-65
2022/03/21 03:37:59;;;;;;;22.88;13.20;;;2.50;61.80;;;;;;5012603;28;20048;-65
2022/03/21 03:40:24;;;;;;;25.85;13.55;;;2.50;61.80;;;;;;5013108;28;20033;-66
2022/03/21 03:42:50;;;;;;;25.42;13.88;;;2.50;61.70;;;;;;5020050;28;20073;-65
2022/03/21 03:45:16;;;;;;;24.42;13.93;;;2.50;61.80;;;;;;5021758;28;20115;-65
2022/03/21 03:47:42;;;;;;;25.55;14.70;;;2.50;61.80;;;;;;5021406;28;20123;-66
2022/03/21 03:50:08;;;;;;;26.33;13.82;;;2.60;61.70;;;;;;5013733;28;20041;-65
2022/03/21 03:52:34;;;;;;;24.65;14.30;;;2.50;61.80;;;;;;5021770;28;20025;-65
2022/03/21 03:54:59;;;;;;;24.65;14.25;;;2.50;61.80;;;;;;5025853;28;20041;-64
2022/03/21 03:57:25;;;;;;;24.23;14.13;;;2.50;62.00;;;;;;5026265;28;20041;-65
2022/03/21 03:59:51;;;;;;;25.75;13.80;;;2.50;62.00;;;;;;5020295;28;20039;-65
2022/03/21 04:02:16;;;;;;;25.02;13.82;;;2.40;61.90;;;;;;5020922;28;20030;-65
2022/03/21 04:04:42;;;;;;;24.55;14.00;;;2.40;62.10;;;;;;5015571;28;20072;-65
2022/03/21 04:07:08;;;;;;;21.92;13.20;;;2.40;62.20;;;;;;5015324;28;20053;-65
2022/03/21 04:09:34;;;;;;;23.80;14.07;;;2.40;62.30;;;;;;5013119;28;20129;-65
2022/03/21 04:12:00;;;;;;;26.40;13.82;;;2.30;62.30;;;;;;5014318;28;20536;-65
2022/03/21 04:14:26;;;;;;;22.23;13.45;;;2.30;62.50;;;;;;5021482;28;20034;-65
2022/03/21 04:16:51;;;;;;;21.50;13.65;;;2.20;62.50;;;;;;5025750;28;20037;-65
2022/03/21 04:19:17;;;;;;;24.55;13.88;;;2.20;62.70;;;;;;5026469;28;20109;-65
2022/03/21 04:21:43;;;;;;;25.25;14.07;;;2.20;62.80;;;;;;5025477;28;20041;-65
2022/03/21 04:24:08;;;;;;;24.60;13.98;;;2.10;63.00;;;;;;5027205;28;20033;-65
2022/03/21 04:26:34;;;;;;;25.40;13.73;;;2.10;63.10;;;;;;5024689;28;20552;-65
2022/03/21 04:29:02;;;;;;;23.08;13.60;;;2.00;63.20;;;;;;5024307;28;20052;-65
2022/03/21 04:31:28;;;;;;;27.67;14.63;;;2.10;63.30;;;;;;5018370;28;20047;-65
2022/03/21 04:33:54;;;;;;;24.88;14.35;;;2.00;63.30;;;;;;5016628;28;20033;-63
2022/03/21 04:36:20;;;;;;;26.42;14.50;;;2.00;63.40;;;;;;5014676;28;20099;-64
2022/03/21 04:38:45;;;;;;;26.75;14.73;;;2.00;63.40;;;;;;5015924;28;20045;-64
2022/03/21 04:41:11;;;;;;;28.38;14.65;;;2.00;63.60;;;;;;5016712;28;20399;-65
2022/03/21 04:43:37;;;;;;;27.60;14.27;;;1.90;63.50;;;;;;5016138;28;20057;-64
2022/03/21 04:46:02;;;;;;;25.52;14.30;;;1.90;63.50;;;;;;5018311;28;20044;-65
2022/03/21 04:48:28;;;;;;;24.42;14.10;;;1.90;63.60;;;;;;5018622;28;20492;-65
2022/03/21 04:50:53;;;;;;;26.17;15.13;;;1.90;63.50;;;;;;5015504;28;20057;-66
2022/03/21 04:53:19;;;;;;;26.88;14.48;;;1.90;63.70;;;;;;5014531;28;20670;-63
2022/03/21 04:55:45;;;;;;;25.15;15.05;;;1.90;63.70;;;;;;5017404;28;20026;-65
2022/03/21 04:58:11;;;;;;;26.33;15.02;;;1.90;63.60;;;;;;5024309;28;20064;-65
2022/03/21 05:00:38;;;;;;;25.13;14.63;;;1.90;63.70;;;;;;5023912;28;20061;-65
2022/03/21 05:03:07;;;;;;;28.90;15.25;;;1.90;63.90;;;;;;5016026;28;20048;-66
2022/03/21 05:05:37;;;;;;;27.58;14.93;;;1.90;63.90;;;;;;5012836;28;20033;-65
2022/03/21 05:08:03;;;;;;;28.73;15.85;;;1.90;63.90;;;;;;5016423;28;20069;-65
2022/03/21 05:10:30;;;;;;;28.40;15.02;;;1.80;63.70;;;;;;5013633;28;20029;-64
2022/03/21 05:12:57;;;;;;;31.73;16.08;;;1.90;63.70;;;;;;5011590;28;20034;-64
2022/03/21 05:15:22;;;;;;;32.30;16.40;;;1.80;63.60;;;;;;5022229;28;20292;-65
2022/03/21 05:17:48;;;;;;;33.15;17.00;;;1.80;63.60;;;;;;5018753;28;20033;-65
2022/03/21 05:20:17;;;;;;;32.60;17.08;;;1.80;63.60;;;;;;5019384;28;20412;-66
2022/03/21 05:30:57;;;;;;;30.60;16.33;;;1.90;63.70;;;;;;5013426;28;20037;-63
2022/03/21 05:31:04;;;;;;;31.02;14.80;;;1.80;63.50;;;;;;5008589;28;20037;-65
2022/03/21 05:36:17;;;;;;;30.23;15.15;;;1.80;63.50;;;;;;5018841;28;20477;-65
2022/03/21 05:38:43;;;;;;;31.70;15.27;;;1.70;63.50;;;;;;5016161;28;20036;-65
2022/03/21 05:41:09;;;;;;;32.50;15.98;;;1.70;63.50;;;;;;5023112;28;20528;-65
2022/03/21 05:43:34;;;;;;;32.30;16.65;;;1.70;63.70;;;;;;5021313;28;20289;-65
2022/03/21 05:46:03;;;;;;;27.88;16.27;;;1.70;63.90;;;;;;5020091;28;20037;-65
2022/03/21 05:51:13;;;;;;;;;;;1.70;63.90;;;;;;5022126;28;20515;-66
2022/03/21 05:53:39;;;;;;;32.45;15.35;;;1.70;65.00;;;;;;5021288;28;19948;-65
2022/03/21 05:56:05;;;;;;;28.85;14.63;;;1.70;63.50;;;;;;5012333;28;20497;-65
2022/03/21 05:58:31;;;;;;;29.95;16.08;;;1.60;63.70;;;;;;5015516;28;20124;-66
2022/03/21 06:00:57;;;;;;;30.05;15.95;;;1.60;63.90;;;;;;5021104;28;20065;-61
2022/03/21 06:03:26;;;;;;;28.20;15.30;;;1.60;64.00;;;;;;5025562;28;20049;-65
2022/03/21 06:05:53;;;;;;;28.13;15.35;;;1.70;64.20;;;;;;5023509;28;20043;-65
2022/03/21 06:08:20;;;;;;;27.15;14.73;;;1.70;64.20;;;;;;5021675;28;20037;-65
2022/03/21 06:10:46;;;;;;;28.25;15.55;;;1.70;64.30;;;;;;5015495;28;20559;-65
2022/03/21 06:13:13;;;;;;;32.40;16.33;;;1.70;64.40;;;;;;5019051;28;20062;-65
2022/03/21 06:15:40;;;;;;;28.90;15.98;;;1.70;64.60;;;;;;5019787;28;20076;-65
2022/03/21 06:18:10;;;;;;;34.80;16.83;;;1.70;64.60;;;;;;5021534;28;20041;-65
2022/03/21 06:20:36;;;;;;;32.90;16.48;;;1.70;64.70;;;;;;5018808;28;20029;-67
2022/03/21 06:23:02;;;;;;;33.55;16.30;;;1.70;64.60;;;;;;5022715;28;20041;-66
2022/03/21 06:25:28;;;;;;;33.92;16.92;;;1.80;64.60;;;;;;5020587;28;20576;-65
2022/03/21 06:27:55;;;;;;;36.45;17.77;;;1.80;64.60;;;;;;5021744;28;20111;-66
2022/03/21 06:30:21;;;;;;;37.95;16.80;;;1.80;64.70;;;;;;5021037;28;20030;-65
2022/03/21 06:32:46;;;;;;;34.88;16.00;;;1.90;64.70;;;;;;5024140;28;20280;-65
2022/03/21 06:35:12;;;;;;;33.05;17.23;;;1.90;64.60;;;;;;5024505;28;20044;-65
2022/03/21 06:37:39;;;;;;;43.40;19.25;;;1.90;64.60;;;;;;5023767;28;20033;-66
2022/03/21 06:40:06;;;;;;;44.45;20.55;;;2.00;65.40;;;;;;5016573;28;20037;-66
2022/03/21 06:42:32;;;;;;;36.60;19.63;;;2.00;64.50;;;;;;5024302;28;20033;-65
2022/03/21 06:44:57;;;;;;;39.65;17.60;;;2.10;64.60;;;;;;5024574;28;20420;-66
2022/03/21 06:47:23;;;;;;;32.50;17.02;;;2.10;64.70;;;;;;5026679;28;20048;-65
2022/03/21 06:49:49;;;;;;;34.97;17.15;;;2.20;64.70;;;;;;5025623;28;20696;-66
2022/03/21 06:52:18;;;;;;;37.00;15.70;;;2.20;64.70;;;;;;5023408;28;20238;-65
2022/03/21 06:54:48;;;;;;;29.42;15.50;;;2.20;64.60;;;;;;5023560;28;20040;-64
2022/03/21 06:57:16;;;;;;;28.50;14.70;;;2.30;64.60;;;;;;5019844;28;20426;-66
2022/03/21 06:59:42;;;;;;;30.77;15.30;;;2.40;65.50;;;;;;5019082;28;20049;-66
2022/03/21 07:02:08;;;;;;;36.28;16.63;;;2.40;64.60;;;;;;5018433;28;20037;-66
2022/03/21 07:04:34;;;;;;;39.63;16.38;;;2.50;64.60;;;;;;5017508;28;20038;-65
2022/03/21 07:07:00;;;;;;;31.13;15.93;;;2.50;64.60;;;;;;5021157;28;20037;-64
2022/03/21 07:09:25;;;;;;;30.25;15.38;;;2.60;64.50;;;;;;5022067;28;20029;-64
2022/03/21 07:11:52;;;;;;;33.63;16.00;;;2.70;64.40;;;;;;5013579;28;20048;-64
2022/03/21 07:14:18;;;;;;;29.25;14.55;;;2.80;64.50;;;;;;5021336;28;20037;-65
2022/03/21 07:16:44;;;;;;;28.10;14.13;;;2.80;64.40;;;;;;5021201;28;20066;-65
2022/03/21 07:19:10;;;;;;;29.40;14.73;;;2.90;64.20;;;;;;5020876;28;20049;-64
2022/03/21 07:21:35;;;;;;;33.03;14.63;;;3.00;64.20;;;;;;5020209;28;20054;-65
2022/03/21 07:24:01;;;;;;;36.65;15.00;;;3.10;64.10;;;;;;5024953;28;20069;-64
2022/03/21 07:26:27;;;;;;;27.88;14.15;;;3.20;64.10;;;;;;5024430;28;20057;-64
2022/03/21 07:28:52;;;;;;;22.73;12.98;;;3.20;63.90;;;;;;5020322;28;20039;-65
2022/03/21 07:31:18;;;;;;;21.77;12.50;;;3.30;63.50;;;;;;5025233;28;20046;-65
2022/03/21 07:33:44;;;;;;;19.30;11.30;;;3.40;63.20;;;;;;5025228;28;20060;-65
2022/03/21 07:36:10;;;;;;;21.13;11.55;;;3.50;62.70;;;;;;5025335;28;20052;-64
2022/03/21 07:38:37;;;;;;;21.40;11.52;;;3.50;62.40;;;;;;5025537;28;20022;-65
2022/03/21 07:41:07;;;;;;;17.85;11.15;;;3.60;62.20;;;;;;5026115;28;20025;-64
2022/03/21 07:43:37;;;;;;;19.08;11.30;;;3.70;62.10;;;;;;5025654;28;20467;-65
2022/03/21 07:48:48;;;;;;;19.20;11.85;;;3.90;61.60;;;;;;5026843;28;20092;-64
2022/03/21 07:51:14;;;;;;;21.70;12.27;;;4.00;61.40;;;;;;5031795;28;20456;-64
2022/03/21 07:53:40;;;;;;;20.08;12.35;;;4.10;61.30;;;;;;5028155;28;20045;-64
2022/03/21 07:56:06;;;;;;;22.33;12.35;;;4.10;61.00;;;;;;5028119;28;20033;-64
2022/03/21 07:58:32;;;;;;;18.92;11.23;;;4.20;60.90;;;;;;5030055;28;20037;-63
2022/03/21 08:01:01;;;;;;;18.02;11.82;;;4.30;60.90;;;;;;5026099;28;20023;-64
2022/03/21 08:03:27;;;;;;;24.25;12.32;;;4.30;60.80;;;;;;5028876;28;20034;-64
2022/03/21 08:05:53;;;;;;;22.30;12.10;;;4.40;60.70;;;;;;5020674;28;20033;-64
2022/03/21 08:08:22;;;;;;;21.40;11.50;;;4.50;60.60;;;;;;5028354;28;20117;-64
2022/03/21 08:10:48;;;;;;;19.63;11.73;;;4.60;60.60;;;;;;5020333;28;20127;-64
2022/03/21 08:13:17;;;;;;;23.63;13.52;;;4.70;60.40;;;;;;5021714;28;20026;-64
2022/03/21 08:15:44;;;;;;;18.90;11.98;;;4.80;60.30;;;;;;5023294;28;20519;-64
2022/03/21 08:18:11;;;;;;;22.33;12.55;;;4.90;60.50;;;;;;5022759;28;20065;-65
2022/03/21 08:20:39;;;;;;;21.63;12.68;;;5.00;60.50;;;;;;5024778;28;20037;-65
2022/03/21 08:23:12;;;;;;;21.45;12.73;;;5.00;60.40;;;;;;5026311;28;20129;-66
2022/03/21 08:25:43;;;;;;;21.02;12.38;;;5.20;60.20;;;;;;5026732;28;20099;-65
2022/03/21 08:28:09;;;;;;;20.30;12.50;;;5.30;60.20;;;;;;5026161;28;20045;-65
2022/03/21 08:30:37;;;;;;;23.02;12.48;;;5.30;60.00;;;;;;5024785;28;20126;-65
2022/03/21 08:33:08;;;;;;;22.67;13.68;;;5.40;59.90;;;;;;5024955;28;20034;-65
2022/03/21 08:35:36;;;;;;;22.52;13.43;;;5.50;59.90;;;;;;5026573;28;20099;-65
2022/03/21 08:38:03;;;;;;;20.15;12.45;;;5.60;59.80;;;;;;5027833;28;20047;-65
2022/03/21 08:40:29;;;;;;;18.77;11.43;;;5.70;59.60;;;;;;5025624;28;20025;-65
2022/03/21 08:42:56;;;;;;;22.30;12.90;;;5.80;59.50;;;;;;5026938;28;20064;-65
2022/03/21 08:45:21;;;;;;;19.30;11.48;;;5.80;59.20;;;;;;5022904;28;20416;-65
2022/03/21 08:47:47;;;;;;;18.35;11.27;;;5.90;59.10;;;;;;5027018;28;20034;-64
2022/03/21 08:50:13;;;;;;;17.67;11.88;;;6.00;59.50;;;;;;5026930;28;20493;-65
2022/03/21 08:52:40;;;;;;;22.63;11.90;;;6.10;58.60;;;;;;5028120;28;20041;-64
2022/03/21 08:55:06;;;;;;;19.13;12.05;;;6.20;58.40;;;;;;5032191;28;20038;-65
2022/03/21 08:57:32;;;;;;;18.92;11.75;;;6.30;58.20;;;;;;5028660;28;20026;-64
2022/03/21 08:59:58;;;;;;;18.73;11.60;;;6.40;57.90;;;;;;5022247;28;20054;-64
2022/03/21 09:02:24;;;;;;;20.98;12.15;;;6.50;57.80;;;;;;5021106;28;20066;-66
2022/03/21 09:04:50;;;;;;;19.38;12.10;;;6.60;57.70;;;;;;5029040;28;20443;-65
2022/03/21 09:07:16;;;;;;;23.30;11.60;;;6.70;57.70;;;;;;5018897;28;20029;-65
2022/03/21 09:09:42;;;;;;;19.95;12.52;;;6.80;57.60;;;;;;5027310;28;20036;-65
2022/03/21 09:12:09;;;;;;;18.30;11.10;;;6.90;57.60;;;;;;5016919;28;20049;-64
2022/03/21 09:14:35;;;;;;;19.10;12.07;;;7.00;57.50;;;;;;5021114;28;20508;-64
2022/03/21 09:17:02;;;;;;;21.33;11.73;;;7.10;57.50;;;;;;5024192;28;20045;-66
2022/03/21 09:19:29;;;;;;;16.98;11.25;;;7.20;57.40;;;;;;5022669;28;20064;-65
2022/03/21 09:21:56;;;;;;;21.02;12.18;;;7.30;57.40;;;;;;5021187;28;20515;-65
2022/03/21 09:24:22;;;;;;;17.55;11.88;;;7.50;57.30;;;;;;5025129;28;20091;-65
2022/03/21 09:26:47;;;;;;;18.65;11.93;;;7.50;57.10;;;;;;5022060;28;20038;-65
2022/03/21 09:29:13;;;;;;;18.48;12.27;;;7.70;56.90;;;;;;5023894;28;20095;-65
2022/03/21 09:31:40;;;;;;;19.80;11.75;;;7.80;56.90;;;;;;5025732;28;20113;-65
2022/03/21 09:34:07;;;;;;;18.23;12.00;;;7.90;56.80;;;;;;5025870;28;20069;-65
2022/03/21 09:36:33;;;;;;;18.75;11.77;;;7.90;56.70;;;;;;5025075;28;20489;-65
2022/03/21 09:38:58;;;;;;;18.70;11.70;;;8.00;56.60;;;;;;5024972;28;20087;-65
2022/03/21 09:41:26;;;;;;;19.60;12.40;;;8.10;56.50;;;;;;5020887;28;20414;-65
2022/03/21 09:43:56;;;;;;;18.27;11.45;;;8.20;56.40;;;;;;5024355;28;20040;-65
2022/03/21 09:46:23;;;;;;;19.88;12.82;;;8.30;56.20;;;;;;5021635;28;20144;-65
2022/03/21 09:48:51;;;;;;;20.88;13.63;;;8.40;56.20;;;;;;5021392;28;20036;-64
2022/03/21 09:51:27;;;;;;;20.33;12.45;;;8.50;56.10;;;;;;5021868;28;20032;-65
2022/03/21 09:53:55;;;;;;;18.30;12.07;;;8.60;56.60;;;;;;5022275;28;20476;-65
2022/03/21 09:56:21;;;;;;;20.63;12.52;;;8.70;56.00;;;;;;5020062;28;20428;-66
2022/03/21 09:58:47;;;;;;;16.20;11.80;;;8.80;55.60;;;;;;5018749;28;20044;-65
2022/03/21 10:01:14;;;;;;;19.73;12.20;;;8.90;55.50;;;;;;5016702;28;20590;-65
2022/03/21 10:03:40;;;;;;;19.25;11.65;;;9.00;55.40;;;;;;5024495;28;20622;-65
2022/03/21 10:06:24;;;;;;;19.00;12.75;;;9.10;55.30;;;;;;5021272;28;20386;-64
2022/03/21 10:09:02;;;;;;;18.65;12.45;;;9.20;55.00;;;;;;5018968;28;20038;-64
2022/03/21 10:11:28;;;;;;;19.15;12.63;;;9.30;55.20;;;;;;5017130;28;20041;-65
2022/03/21 10:13:53;;;;;;;18.05;12.20;;;9.40;55.00;;;;;;5027460;28;20039;-64
2022/03/21 10:16:19;;;;;;;18.70;13.13;;;9.50;54.40;;;;;;5027526;28;20068;-65
2022/03/21 10:18:53;;;;;;;18.38;12.40;;;9.60;54.20;;;;;;5028023;28;20423;-65
2022/03/21 10:21:21;;;;;;;21.30;11.95;;;9.70;53.80;;;;;;5029551;28;20037;-66
2022/03/21 10:24:00;;;;;;;19.35;12.52;;;9.80;54.00;;;;;;5029503;28;20029;-65
2022/03/21 10:26:41;;;;;;;17.83;11.80;;;9.80;53.40;;;;;;5024168;28;20042;-66
2022/03/21 10:29:10;;;;;;;17.65;12.18;;;9.90;53.60;;;;;;5020992;28;20041;-66
2022/03/21 10:31:46;;;;;;;18.27;12.05;;;10.00;54.00;;;;;;5024702;28;20037;-66
2022/03/21 10:34:17;;;;;;;19.48;12.63;;;10.10;53.60;;;;;;5021695;28;20056;-66
2022/03/21 10:37:03;;;;;;;17.88;12.00;;;10.20;53.80;;;;;;5021272;28;20445;-65
2022/03/21 10:39:31;;;;;;;18.17;11.77;;;10.30;53.10;;;;;;5023330;28;20060;-64
2022/03/21 10:41:59;;;;;;;17.80;11.77;;;10.40;53.50;;;;;;5024182;28;20057;-66
2022/03/21 10:44:26;;;;;;;17.42;12.20;;;10.50;53.50;;;;;;5021777;28;20091;-66
2022/03/21 10:46:58;;;;;;;18.08;12.35;;;10.60;53.10;;;;;;5022930;28;20055;-65
2022/03/21 10:49:31;;;;;;;16.50;11.82;;;10.60;52.80;;;;;;5022021;28;20049;-65
2022/03/21 10:51:57;;;;;;;16.67;12.07;;;10.70;52.90;;;;;;5022299;28;20034;-65
2022/03/21 10:54:42;;;;;;;19.50;12.30;;;10.80;53.00;;;;;;5022051;28;20403;-66
2022/03/21 10:57:25;;;;;;;;;;;10.90;52.50;;;;;;5024310;28;20040;-65
2022/03/21 10:59:51;;;;;;;16.00;10.80;;;10.90;52.90;;;;;;5018525;28;19921;-65
2022/03/21 11:02:17;;;;;;;17.42;11.38;;;11.00;53.00;;;;;;5024464;28;20539;-65
2022/03/21 11:04:44;;;;;;;16.75;11.82;;;11.10;52.80;;;;;;5028921;28;20251;-66
2022/03/21 11:07:11;;;;;;;17.73;12.18;;;11.20;52.60;;;;;;5022491;28;20037;-66
2022/03/21 11:09:42;;;;;;;17.98;13.07;;;11.20;52.10;;;;;;5029432;28;20033;-65
2022/03/21 11:12:09;;;;;;;20.60;12.55;;;11.30;51.70;;;;;;5023023;28;20054;-67
2022/03/21 11:14:44;;;;;;;20.10;12.45;;;11.40;51.80;;;;;;5028046;28;20337;-65
2022/03/21 11:17:09;;;;;;;15.85;11.70;;;11.40;51.30;;;;;;5028103;28;20384;-65
2022/03/21 11:19:35;;;;;;;17.95;13.00;;;11.50;52.40;;;;;;5027983;28;20597;-66
2022/03/21 11:22:01;;;;;;;17.17;12.20;;;11.60;51.50;;;;;;5029112;28;20454;-66
2022/03/21 11:24:34;;;;;;;19.55;12.48;;;11.70;50.90;;;;;;5030153;28;20583;-66
2022/03/21 11:27:11;;;;;;;17.95;12.40;;;11.70;50.90;;;;;;5028570;28;20123;-66
2022/03/21 11:29:52;;;;;;;17.45;12.57;;;11.80;51.00;;;;;;5030188;28;20128;-66
2022/03/21 11:32:51;;;;;;;20.02;12.70;;;11.90;50.80;;;;;;5022450;28;20041;-65
2022/03/21 11:35:28;;;;;;;20.65;12.40;;;12.00;50.60;;;;;;5025045;28;20108;-65
2022/03/21 11:37:55;;;;;;;17.23;12.25;;;12.10;50.80;;;;;;5022789;28;20029;-65
2022/03/21 11:40:26;;;;;;;17.40;12.57;;;12.10;51.00;;;;;;5028450;28;20032;-66
2022/03/21 11:42:54;;;;;;;17.92;11.88;;;12.20;50.00;;;;;;5027241;28;20523;-65
2022/03/21 11:45:25;;;;;;;20.42;12.45;;;12.30;50.60;;;;;;5026243;28;20537;-65
2022/03/21 11:48:17;;;;;;;20.27;12.73;;;12.40;49.80;;;;;;5027253;28;20041;-64
2022/03/21 11:50:43;;;;;;;17.00;12.02;;;12.50;49.70;;;;;;5025755;28;20030;-64
2022/03/21 11:53:14;;;;;;;18.92;12.35;;;12.50;50.10;;;;;;5028377;28;20037;-65
2022/03/21 11:55:41;;;;;;;18.52;12.80;;;12.60;48.70;;;;;;5026917;28;20102;-66
2022/03/21 11:58:22;;;;;;;18.13;12.57;;;12.70;48.20;;;;;;5025566;28;20416;-65
2022/03/21 12:01:06;;;;;;;16.30;11.70;;;12.80;47.40;;;;;;5025734;28;20575;-65
2022/03/21 12:03:33;;;;;;;16.33;11.18;;;12.80;48.00;;;;;;5027113;28;20042;-64
2022/03/21 12:06:32;;;;;;;15.20;11.20;;;12.90;49.00;;;;;;5025383;28;20064;-65
2022/03/21 12:09:01;;;;;;;18.05;11.32;;;13.00;48.20;;;;;;5026598;28;20034;-66
2022/03/21 12:11:39;;;;;;;18.23;12.10;;;13.00;48.90;;;;;;5019712;28;20063;-65
2022/03/21 12:14:42;;;;;;;18.17;12.05;;;13.10;48.00;;;;;;5024423;28;20033;-66
2022/03/21 12:17:10;;;;;;;16.25;11.00;;;13.20;48.00;;;;;;5020738;28;20041;-65
2022/03/21 12:19:47;;;;;;;16.92;11.27;;;13.30;48.70;;;;;;5026393;28;20094;-66
2022/03/21 12:23:10;;;;;;;16.08;11.15;;;13.30;48.30;;;;;;5026952;28;20484;-65
2022/03/21 12:25:29;;;;;;;24.25;11.15;;;13.50;48.20;;;;;;5024707;28;20309;-65
2022/03/21 12:28:17;;;;;;;17.98;11.00;;;13.50;48.00;;;;;;5026904;28;20528;-65
2022/03/21 12:30:48;;;;;;;18.00;11.85;;;13.60;48.20;;;;;;5025523;28;20121;-65
2022/03/21 12:33:13;;;;;;;17.10;11.35;;;13.70;47.60;;;;;;5025433;28;20037;-67
2022/03/21 12:35:45;;;;;;;16.70;11.50;;;13.70;47.80;;;;;;5025419;28;20041;-65
2022/03/21 12:38:12;;;;;;;15.98;10.68;;;13.80;47.00;;;;;;5024618;28;20049;-66
2022/03/21 12:40:37;;;;;;;15.35;11.07;;;13.90;47.70;;;;;;5024438;28;20512;-66
2022/03/21 12:43:05;;;;;;;15.82;10.85;;;13.90;47.70;;;;;;5022885;28;20099;-65
2022/03/21 12:45:31;;;;;;;17.73;11.32;;;14.00;47.50;;;;;;5026105;28;20133;-66
2022/03/21 12:48:05;;;;;;;20.20;11.38;;;14.00;47.40;;;;;;5026054;28;20068;-65
2022/03/21 12:50:32;;;;;;;17.30;11.50;;;14.10;47.00;;;;;;5021422;28;20025;-65
2022/03/21 12:53:04;;;;;;;16.15;11.75;;;14.10;46.50;;;;;;5023589;28;20565;-65
2022/03/21 12:55:30;;;;;;;15.82;10.20;;;14.20;46.10;;;;;;5025857;28;20039;-65
2022/03/21 12:57:57;;;;;;;15.18;11.00;;;14.30;46.90;;;;;;5024570;28;20029;-66